sensor_id;sensor_type;location;lat;lon;timestamp;P1;durP1;ratioP1;P2;durP2;ratioP2
9424;SDS011;17139;52.140;11.636;2022-07-04T00:01:56;2.63;;;2.42;;
9424;SDS011;17139;52.140;11.636;2022-07-04T00:04:23;2.42;;;2.22;;
9424;SDS011;17139;52.140;11.636;2022-07-04T00:06:50;2.63;;;2.53;;
9424;SDS011;17139;52.140;11.636;2022-07-04T00:09:19;2.38;;;2.28;;
9424;SDS011;17139;52.140;11.636;2022-07-04T00:11:46;2.20;;;2.10;;
9424;SDS011;17139;52.140;11.636;2022-07-04T00:14:13;2.75;;;2.63;;
9424;SDS011;17139;52.140;11.636;2022-07-04T00:16:40;3.63;;;2.35;;
9424;SDS011;17139;52.140;11.636;2022-07-04T00:19:07;2.40;;;2.30;;
9424;SDS011;17139;52.140;11.636;2022-07-04T00:21:34;7.25;;;2.78;;
9424;SDS011;17139;52.140;11.636;2022-07-04T00:24:01;2.70;;;2.60;;
9424;SDS011;17139;52.140;11.636;2022-07-04T00:26:30;2.85;;;2.60;;
9424;SDS011;17139;52.140;11.636;2022-07-04T00:28:57;2.60;;;2.50;;
9424;SDS011;17139;52.140;11.636;2022-07-04T00:31:25;2.55;;;2.45;;
9424;SDS011;17139;52.140;11.636;2022-07-04T00:33:52;2.80;;;2.70;;
9424;SDS011;17139;52.140;11.636;2022-07-04T00:36:19;2.05;;;1.95;;
9424;SDS011;17139;52.140;11.636;2022-07-04T00:38:46;2.63;;;2.42;;
9424;SDS011;17139;52.140;11.636;2022-07-04T00:41:13;2.67;;;2.28;;
9424;SDS011;17139;52.140;11.636;2022-07-04T00:43:41;2.80;;;2.70;;
9424;SDS011;17139;52.140;11.636;2022-07-04T00:46:09;2.60;;;2.45;;
9424;SDS011;17139;52.140;11.636;2022-07-04T00:48:36;2.70;;;2.50;;
9424;SDS011;17139;52.140;11.636;2022-07-04T00:51:03;2.60;;;2.10;;
9424;SDS011;17139;52.140;11.636;2022-07-04T00:53:30;3.92;;;2.30;;
9424;SDS011;17139;52.140;11.636;2022-07-04T00:55:57;2.45;;;2.35;;
9424;SDS011;17139;52.140;11.636;2022-07-04T00:58:24;2.30;;;2.25;;
9424;SDS011;17139;52.140;11.636;2022-07-04T01:00:53;2.80;;;2.70;;
9424;SDS011;17139;52.140;11.636;2022-07-04T01:03:20;2.83;;;2.25;;
9424;SDS011;17139;52.140;11.636;2022-07-04T01:05:49;2.17;;;2.08;;
9424;SDS011;17139;52.140;11.636;2022-07-04T01:08:17;2.75;;;2.60;;
9424;SDS011;17139;52.140;11.636;2022-07-04T01:10:44;2.45;;;2.20;;
9424;SDS011;17139;52.140;11.636;2022-07-04T01:13:18;2.17;;;1.90;;
9424;SDS011;17139;52.140;11.636;2022-07-04T01:15:46;3.63;;;2.60;;
9424;SDS011;17139;52.140;11.636;2022-07-04T01:18:15;3.33;;;2.40;;
9424;SDS011;17139;52.140;11.636;2022-07-04T01:20:44;2.67;;;2.53;;
9424;SDS011;17139;52.140;11.636;2022-07-04T01:23:11;2.80;;;2.60;;
9424;SDS011;17139;52.140;11.636;2022-07-04T01:25:39;2.53;;;2.42;;
9424;SDS011;17139;52.140;11.636;2022-07-04T01:28:06;2.67;;;2.58;;
9424;SDS011;17139;52.140;11.636;2022-07-04T01:30:34;2.50;;;2.40;;
9424;SDS011;17139;52.140;11.636;2022-07-04T01:33:02;2.58;;;2.47;;
9424;SDS011;17139;52.140;11.636;2022-07-04T01:35:30;2.90;;;2.80;;
9424;SDS011;17139;52.140;11.636;2022-07-04T01:37:59;2.72;;;2.63;;
9424;SDS011;17139;52.140;11.636;2022-07-04T01:40:26;2.60;;;2.50;;
9424;SDS011;17139;52.140;11.636;2022-07-04T01:42:53;3.00;;;2.80;;
9424;SDS011;17139;52.140;11.636;2022-07-04T01:45:20;2.97;;;2.78;;
9424;SDS011;17139;52.140;11.636;2022-07-04T01:47:48;3.03;;;2.92;;
9424;SDS011;17139;52.140;11.636;2022-07-04T01:50:15;3.40;;;2.90;;
9424;SDS011;17139;52.140;11.636;2022-07-04T01:52:42;2.38;;;2.28;;
9424;SDS011;17139;52.140;11.636;2022-07-04T01:55:11;2.70;;;2.60;;
9424;SDS011;17139;52.140;11.636;2022-07-04T01:57:38;2.75;;;2.50;;
9424;SDS011;17139;52.140;11.636;2022-07-04T02:00:06;2.83;;;2.60;;
9424;SDS011;17139;52.140;11.636;2022-07-04T02:02:53;2.63;;;2.53;;
9424;SDS011;17139;52.140;11.636;2022-07-04T02:05:21;2.42;;;2.30;;
9424;SDS011;17139;52.140;11.636;2022-07-04T02:07:48;2.70;;;2.50;;
9424;SDS011;17139;52.140;11.636;2022-07-04T02:10:17;2.10;;;2.10;;
9424;SDS011;17139;52.140;11.636;2022-07-04T02:12:44;2.22;;;2.05;;
9424;SDS011;17139;52.140;11.636;2022-07-04T02:15:30;3.28;;;2.20;;
9424;SDS011;17139;52.140;11.636;2022-07-04T02:17:59;1.83;;;1.83;;
9424;SDS011;17139;52.140;11.636;2022-07-04T02:20:27;2.30;;;2.20;;
9424;SDS011;17139;52.140;11.636;2022-07-04T02:22:54;2.10;;;2.00;;
9424;SDS011;17139;52.140;11.636;2022-07-04T02:25:23;2.15;;;2.05;;
9424;SDS011;17139;52.140;11.636;2022-07-04T02:27:51;5.00;;;2.50;;
9424;SDS011;17139;52.140;11.636;2022-07-04T02:30:18;2.20;;;2.08;;
9424;SDS011;17139;52.140;11.636;2022-07-04T02:32:44;2.33;;;2.22;;
9424;SDS011;17139;52.140;11.636;2022-07-04T02:35:11;2.40;;;2.20;;
9424;SDS011;17139;52.140;11.636;2022-07-04T02:37:38;2.08;;;2.03;;
9424;SDS011;17139;52.140;11.636;2022-07-04T02:40:06;2.22;;;2.00;;
9424;SDS011;17139;52.140;11.636;2022-07-04T02:42:35;2.08;;;2.03;;
9424;SDS011;17139;52.140;11.636;2022-07-04T02:45:03;1.92;;;1.92;;
9424;SDS011;17139;52.140;11.636;2022-07-04T02:47:31;2.30;;;2.08;;
9424;SDS011;17139;52.140;11.636;2022-07-04T02:49:59;2.03;;;2.00;;
9424;SDS011;17139;52.140;11.636;2022-07-04T02:52:27;2.28;;;2.08;;
9424;SDS011;17139;52.140;11.636;2022-07-04T02:54:55;2.10;;;2.00;;
9424;SDS011;17139;52.140;11.636;2022-07-04T02:57:21;2.80;;;2.60;;
9424;SDS011;17139;52.140;11.636;2022-07-04T02:59:50;2.35;;;2.28;;
9424;SDS011;17139;52.140;11.636;2022-07-04T03:02:17;2.65;;;2.55;;
9424;SDS011;17139;52.140;11.636;2022-07-04T03:04:44;5.65;;;2.00;;
9424;SDS011;17139;52.140;11.636;2022-07-04T03:07:11;2.08;;;1.98;;
9424;SDS011;17139;52.140;11.636;2022-07-04T03:09:38;2.10;;;2.00;;
9424;SDS011;17139;52.140;11.636;2022-07-04T03:12:05;2.10;;;2.00;;
9424;SDS011;17139;52.140;11.636;2022-07-04T03:14:33;2.00;;;2.00;;
9424;SDS011;17139;52.140;11.636;2022-07-04T03:17:01;2.00;;;1.85;;
9424;SDS011;17139;52.140;11.636;2022-07-04T03:19:28;2.38;;;2.28;;
9424;SDS011;17139;52.140;11.636;2022-07-04T03:21:55;2.03;;;2.03;;
9424;SDS011;17139;52.140;11.636;2022-07-04T03:24:22;2.80;;;2.28;;
9424;SDS011;17139;52.140;11.636;2022-07-04T03:26:49;2.03;;;1.92;;
9424;SDS011;17139;52.140;11.636;2022-07-04T03:29:15;1.85;;;1.75;;
9424;SDS011;17139;52.140;11.636;2022-07-04T03:31:42;2.05;;;1.92;;
9424;SDS011;17139;52.140;11.636;2022-07-04T03:34:11;2.20;;;2.10;;
9424;SDS011;17139;52.140;11.636;2022-07-04T03:36:38;1.65;;;1.60;;
9424;SDS011;17139;52.140;11.636;2022-07-04T03:39:05;1.60;;;1.50;;
9424;SDS011;17139;52.140;11.636;2022-07-04T03:41:32;1.27;;;1.27;;
9424;SDS011;17139;52.140;11.636;2022-07-04T03:43:59;2.53;;;1.60;;
9424;SDS011;17139;52.140;11.636;2022-07-04T03:46:26;1.73;;;1.63;;
9424;SDS011;17139;52.140;11.636;2022-07-04T03:48:52;1.20;;;1.20;;
9424;SDS011;17139;52.140;11.636;2022-07-04T03:51:22;1.27;;;1.20;;
9424;SDS011;17139;52.140;11.636;2022-07-04T03:53:49;1.10;;;1.10;;
9424;SDS011;17139;52.140;11.636;2022-07-04T03:56:16;1.83;;;1.20;;
9424;SDS011;17139;52.140;11.636;2022-07-04T03:58:43;1.00;;;1.00;;
9424;SDS011;17139;52.140;11.636;2022-07-04T04:01:13;1.50;;;1.45;;
9424;SDS011;17139;52.140;11.636;2022-07-04T04:03:41;1.27;;;1.17;;
9424;SDS011;17139;52.140;11.636;2022-07-04T04:06:26;3.20;;;1.50;;
9424;SDS011;17139;52.140;11.636;2022-07-04T04:08:54;2.53;;;1.60;;
9424;SDS011;17139;52.140;11.636;2022-07-04T04:11:21;1.50;;;1.45;;
9424;SDS011;17139;52.140;11.636;2022-07-04T04:13:48;1.15;;;1.15;;
9424;SDS011;17139;52.140;11.636;2022-07-04T04:16:15;3.45;;;1.20;;
9424;SDS011;17139;52.140;11.636;2022-07-04T04:18:42;1.30;;;1.30;;
9424;SDS011;17139;52.140;11.636;2022-07-04T04:21:09;1.40;;;1.40;;
9424;SDS011;17139;52.140;11.636;2022-07-04T04:23:37;1.02;;;1.02;;
9424;SDS011;17139;52.140;11.636;2022-07-04T04:26:04;1.35;;;1.35;;
9424;SDS011;17139;52.140;11.636;2022-07-04T04:28:31;2.92;;;1.70;;
9424;SDS011;17139;52.140;11.636;2022-07-04T04:30:58;1.70;;;1.60;;
9424;SDS011;17139;52.140;11.636;2022-07-04T04:33:25;1.88;;;1.77;;
9424;SDS011;17139;52.140;11.636;2022-07-04T04:35:52;2.38;;;2.17;;
9424;SDS011;17139;52.140;11.636;2022-07-04T04:38:19;1.90;;;1.38;;
9424;SDS011;17139;52.140;11.636;2022-07-04T04:40:47;1.65;;;1.55;;
9424;SDS011;17139;52.140;11.636;2022-07-04T04:43:14;2.38;;;1.80;;
9424;SDS011;17139;52.140;11.636;2022-07-04T04:45:41;2.70;;;2.50;;
9424;SDS011;17139;52.140;11.636;2022-07-04T04:48:08;1.80;;;1.80;;
9424;SDS011;17139;52.140;11.636;2022-07-04T04:50:35;1.60;;;1.50;;
9424;SDS011;17139;52.140;11.636;2022-07-04T04:53:02;2.58;;;1.30;;
9424;SDS011;17139;52.140;11.636;2022-07-04T04:55:29;1.30;;;1.30;;
9424;SDS011;17139;52.140;11.636;2022-07-04T04:57:57;1.85;;;1.80;;
9424;SDS011;17139;52.140;11.636;2022-07-04T05:00:24;1.40;;;1.40;;
9424;SDS011;17139;52.140;11.636;2022-07-04T05:02:51;2.85;;;1.50;;
9424;SDS011;17139;52.140;11.636;2022-07-04T05:05:19;2.20;;;1.27;;
9424;SDS011;17139;52.140;11.636;2022-07-04T05:07:45;3.45;;;1.58;;
9424;SDS011;17139;52.140;11.636;2022-07-04T05:10:12;1.25;;;1.15;;
9424;SDS011;17139;52.140;11.636;2022-07-04T05:12:40;2.45;;;1.20;;
9424;SDS011;17139;52.140;11.636;2022-07-04T05:15:09;2.00;;;1.80;;
9424;SDS011;17139;52.140;11.636;2022-07-04T05:17:36;2.45;;;1.23;;
9424;SDS011;17139;52.140;11.636;2022-07-04T05:20:04;4.13;;;1.42;;
9424;SDS011;17139;52.140;11.636;2022-07-04T05:22:32;1.38;;;1.38;;
9424;SDS011;17139;52.140;11.636;2022-07-04T05:24:59;1.98;;;1.88;;
9424;SDS011;17139;52.140;11.636;2022-07-04T05:27:26;1.70;;;1.60;;
9424;SDS011;17139;52.140;11.636;2022-07-04T05:29:53;2.15;;;1.60;;
9424;SDS011;17139;52.140;11.636;2022-07-04T05:32:22;4.10;;;1.83;;
9424;SDS011;17139;52.140;11.636;2022-07-04T05:34:48;2.75;;;1.42;;
9424;SDS011;17139;52.140;11.636;2022-07-04T05:37:15;1.75;;;1.65;;
9424;SDS011;17139;52.140;11.636;2022-07-04T05:39:42;1.92;;;1.80;;
9424;SDS011;17139;52.140;11.636;2022-07-04T05:42:09;2.30;;;1.50;;
9424;SDS011;17139;52.140;11.636;2022-07-04T05:44:36;1.58;;;1.48;;
9424;SDS011;17139;52.140;11.636;2022-07-04T05:47:03;1.90;;;1.80;;
9424;SDS011;17139;52.140;11.636;2022-07-04T05:49:32;2.90;;;2.00;;
9424;SDS011;17139;52.140;11.636;2022-07-04T05:51:59;2.17;;;1.98;;
9424;SDS011;17139;52.140;11.636;2022-07-04T05:54:27;2.08;;;1.40;;
9424;SDS011;17139;52.140;11.636;2022-07-04T05:56:54;2.72;;;1.30;;
9424;SDS011;17139;52.140;11.636;2022-07-04T05:59:21;1.75;;;1.65;;
9424;SDS011;17139;52.140;11.636;2022-07-04T06:01:47;2.20;;;1.38;;
9424;SDS011;17139;52.140;11.636;2022-07-04T06:04:14;1.50;;;1.40;;
9424;SDS011;17139;52.140;11.636;2022-07-04T06:06:44;1.48;;;1.38;;
9424;SDS011;17139;52.140;11.636;2022-07-04T06:09:11;2.58;;;1.50;;
9424;SDS011;17139;52.140;11.636;2022-07-04T06:11:38;1.80;;;1.67;;
9424;SDS011;17139;52.140;11.636;2022-07-04T06:14:05;3.80;;;1.73;;
9424;SDS011;17139;52.140;11.636;2022-07-04T06:16:32;4.15;;;1.60;;
9424;SDS011;17139;52.140;11.636;2022-07-04T06:18:58;2.13;;;1.70;;
9424;SDS011;17139;52.140;11.636;2022-07-04T06:21:25;2.58;;;2.38;;
9424;SDS011;17139;52.140;11.636;2022-07-04T06:23:54;3.35;;;2.30;;
9424;SDS011;17139;52.140;11.636;2022-07-04T06:26:22;2.75;;;1.90;;
9424;SDS011;17139;52.140;11.636;2022-07-04T06:28:49;3.28;;;2.00;;
9424;SDS011;17139;52.140;11.636;2022-07-04T06:31:16;2.63;;;1.90;;
9424;SDS011;17139;52.140;11.636;2022-07-04T06:33:43;1.67;;;1.58;;
9424;SDS011;17139;52.140;11.636;2022-07-04T06:36:27;1.55;;;1.45;;
9424;SDS011;17139;52.140;11.636;2022-07-04T06:38:56;2.97;;;1.35;;
9424;SDS011;17139;52.140;11.636;2022-07-04T06:41:23;1.58;;;1.48;;
9424;SDS011;17139;52.140;11.636;2022-07-04T06:43:50;1.70;;;1.60;;
9424;SDS011;17139;52.140;11.636;2022-07-04T06:46:17;1.80;;;1.80;;
9424;SDS011;17139;52.140;11.636;2022-07-04T06:48:44;2.53;;;1.60;;
9424;SDS011;17139;52.140;11.636;2022-07-04T06:51:11;1.50;;;1.40;;
9424;SDS011;17139;52.140;11.636;2022-07-04T06:53:40;1.60;;;1.25;;
9424;SDS011;17139;52.140;11.636;2022-07-04T06:56:08;1.13;;;1.08;;
9424;SDS011;17139;52.140;11.636;2022-07-04T06:58:35;1.13;;;1.13;;
9424;SDS011;17139;52.140;11.636;2022-07-04T07:01:02;6.50;;;1.40;;
9424;SDS011;17139;52.140;11.636;2022-07-04T07:03:29;1.23;;;1.10;;
9424;SDS011;17139;52.140;11.636;2022-07-04T07:05:56;1.35;;;1.00;;
9424;SDS011;17139;52.140;11.636;2022-07-04T07:08:24;1.58;;;1.17;;
9424;SDS011;17139;52.140;11.636;2022-07-04T07:10:51;2.53;;;0.98;;
9424;SDS011;17139;52.140;11.636;2022-07-04T07:13:20;1.10;;;1.10;;
9424;SDS011;17139;52.140;11.636;2022-07-04T07:15:46;0.88;;;0.88;;
9424;SDS011;17139;52.140;11.636;2022-07-04T07:18:13;0.98;;;0.90;;
9424;SDS011;17139;52.140;11.636;2022-07-04T07:20:41;1.00;;;1.00;;
9424;SDS011;17139;52.140;11.636;2022-07-04T07:23:08;1.00;;;1.00;;
9424;SDS011;17139;52.140;11.636;2022-07-04T07:25:35;1.30;;;1.20;;
9424;SDS011;17139;52.140;11.636;2022-07-04T07:28:02;1.30;;;1.30;;
9424;SDS011;17139;52.140;11.636;2022-07-04T07:30:31;1.17;;;1.08;;
9424;SDS011;17139;52.140;11.636;2022-07-04T07:32:58;1.25;;;1.20;;
9424;SDS011;17139;52.140;11.636;2022-07-04T07:35:25;2.33;;;1.20;;
9424;SDS011;17139;52.140;11.636;2022-07-04T07:37:52;1.75;;;1.13;;
9424;SDS011;17139;52.140;11.636;2022-07-04T07:40:19;1.50;;;0.98;;
9424;SDS011;17139;52.140;11.636;2022-07-04T07:42:46;1.85;;;1.00;;
9424;SDS011;17139;52.140;11.636;2022-07-04T07:45:13;0.85;;;0.85;;
9424;SDS011;17139;52.140;11.636;2022-07-04T07:47:41;1.10;;;1.10;;
9424;SDS011;17139;52.140;11.636;2022-07-04T07:50:08;0.85;;;0.85;;
9424;SDS011;17139;52.140;11.636;2022-07-04T07:52:35;2.17;;;1.20;;
9424;SDS011;17139;52.140;11.636;2022-07-04T07:55:03;2.60;;;1.00;;
9424;SDS011;17139;52.140;11.636;2022-07-04T07:57:31;0.90;;;0.90;;
9424;SDS011;17139;52.140;11.636;2022-07-04T07:59:58;1.27;;;1.00;;
9424;SDS011;17139;52.140;11.636;2022-07-04T08:02:25;1.05;;;0.80;;
9424;SDS011;17139;52.140;11.636;2022-07-04T08:05:08;0.88;;;0.88;;
9424;SDS011;17139;52.140;11.636;2022-07-04T08:07:36;1.02;;;0.73;;
9424;SDS011;17139;52.140;11.636;2022-07-04T08:10:05;1.15;;;0.90;;
9424;SDS011;17139;52.140;11.636;2022-07-04T08:12:33;1.60;;;1.10;;
9424;SDS011;17139;52.140;11.636;2022-07-04T08:15:00;0.90;;;0.90;;
9424;SDS011;17139;52.140;11.636;2022-07-04T08:17:27;0.90;;;0.90;;
9424;SDS011;17139;52.140;11.636;2022-07-04T08:19:54;1.40;;;0.90;;
9424;SDS011;17139;52.140;11.636;2022-07-04T08:22:23;1.90;;;1.20;;
9424;SDS011;17139;52.140;11.636;2022-07-04T08:24:50;0.90;;;0.90;;
9424;SDS011;17139;52.140;11.636;2022-07-04T08:27:16;0.93;;;0.93;;
9424;SDS011;17139;52.140;11.636;2022-07-04T08:29:43;1.00;;;0.80;;
9424;SDS011;17139;52.140;11.636;2022-07-04T08:32:10;2.70;;;0.98;;
9424;SDS011;17139;52.140;11.636;2022-07-04T08:34:37;1.27;;;0.88;;
9424;SDS011;17139;52.140;11.636;2022-07-04T08:37:05;0.63;;;0.63;;
9424;SDS011;17139;52.140;11.636;2022-07-04T08:39:34;0.73;;;0.73;;
9424;SDS011;17139;52.140;11.636;2022-07-04T08:42:02;0.80;;;0.80;;
9424;SDS011;17139;52.140;11.636;2022-07-04T08:44:33;3.58;;;0.88;;
9424;SDS011;17139;52.140;11.636;2022-07-04T08:47:04;1.08;;;1.08;;
9424;SDS011;17139;52.140;11.636;2022-07-04T08:49:34;1.00;;;1.00;;
9424;SDS011;17139;52.140;11.636;2022-07-04T08:52:05;1.40;;;1.30;;
9424;SDS011;17139;52.140;11.636;2022-07-04T08:54:38;1.05;;;0.90;;
9424;SDS011;17139;52.140;11.636;2022-07-04T08:57:23;0.70;;;0.70;;
9424;SDS011;17139;52.140;11.636;2022-07-04T09:00:08;0.90;;;0.90;;
9424;SDS011;17139;52.140;11.636;2022-07-04T09:02:35;1.05;;;0.88;;
9424;SDS011;17139;52.140;11.636;2022-07-04T09:05:02;0.80;;;0.80;;
9424;SDS011;17139;52.140;11.636;2022-07-04T09:07:30;1.00;;;1.00;;
9424;SDS011;17139;52.140;11.636;2022-07-04T09:09:58;1.55;;;0.90;;
9424;SDS011;17139;52.140;11.636;2022-07-04T09:12:29;0.98;;;0.98;;
9424;SDS011;17139;52.140;11.636;2022-07-04T09:14:56;0.90;;;0.90;;
9424;SDS011;17139;52.140;11.636;2022-07-04T09:17:24;8.18;;;0.90;;
9424;SDS011;17139;52.140;11.636;2022-07-04T09:20:11;2.53;;;1.02;;
9424;SDS011;17139;52.140;11.636;2022-07-04T09:22:39;5.40;;;0.90;;
9424;SDS011;17139;52.140;11.636;2022-07-04T09:25:08;1.10;;;1.00;;
9424;SDS011;17139;52.140;11.636;2022-07-04T09:27:38;1.00;;;1.00;;
9424;SDS011;17139;52.140;11.636;2022-07-04T09:30:07;1.10;;;1.00;;
9424;SDS011;17139;52.140;11.636;2022-07-04T09:32:39;1.98;;;0.95;;
9424;SDS011;17139;52.140;11.636;2022-07-04T09:35:08;0.75;;;0.75;;
9424;SDS011;17139;52.140;11.636;2022-07-04T09:37:37;1.30;;;1.20;;
9424;SDS011;17139;52.140;11.636;2022-07-04T09:40:07;0.88;;;0.88;;
9424;SDS011;17139;52.140;11.636;2022-07-04T09:42:40;1.40;;;1.02;;
9424;SDS011;17139;52.140;11.636;2022-07-04T09:45:08;2.67;;;1.20;;
9424;SDS011;17139;52.140;11.636;2022-07-04T09:47:37;0.93;;;0.93;;
9424;SDS011;17139;52.140;11.636;2022-07-04T09:50:06;1.77;;;1.00;;
9424;SDS011;17139;52.140;11.636;2022-07-04T09:52:47;2.40;;;0.98;;
9424;SDS011;17139;52.140;11.636;2022-07-04T09:55:22;0.82;;;0.82;;
9424;SDS011;17139;52.140;11.636;2022-07-04T09:57:51;1.08;;;1.08;;
9424;SDS011;17139;52.140;11.636;2022-07-04T10:00:20;0.95;;;0.95;;
9424;SDS011;17139;52.140;11.636;2022-07-04T10:02:49;1.20;;;1.10;;
9424;SDS011;17139;52.140;11.636;2022-07-04T10:05:19;0.98;;;0.98;;
9424;SDS011;17139;52.140;11.636;2022-07-04T10:07:50;1.38;;;1.00;;
9424;SDS011;17139;52.140;11.636;2022-07-04T10:10:20;3.30;;;1.10;;
9424;SDS011;17139;52.140;11.636;2022-07-04T10:12:54;0.93;;;0.93;;
9424;SDS011;17139;52.140;11.636;2022-07-04T10:15:22;0.80;;;0.80;;
9424;SDS011;17139;52.140;11.636;2022-07-04T10:17:49;0.90;;;0.90;;
9424;SDS011;17139;52.140;11.636;2022-07-04T10:20:16;1.48;;;1.00;;
9424;SDS011;17139;52.140;11.636;2022-07-04T10:22:43;0.90;;;0.90;;
9424;SDS011;17139;52.140;11.636;2022-07-04T10:25:10;0.85;;;0.85;;
9424;SDS011;17139;52.140;11.636;2022-07-04T10:27:39;1.33;;;1.33;;
9424;SDS011;17139;52.140;11.636;2022-07-04T10:30:08;0.80;;;0.80;;
9424;SDS011;17139;52.140;11.636;2022-07-04T10:32:38;1.10;;;0.90;;
9424;SDS011;17139;52.140;11.636;2022-07-04T10:35:08;0.85;;;0.85;;
9424;SDS011;17139;52.140;11.636;2022-07-04T10:37:57;1.58;;;1.10;;
9424;SDS011;17139;52.140;11.636;2022-07-04T10:40:41;1.00;;;1.00;;
9424;SDS011;17139;52.140;11.636;2022-07-04T10:49:25;1.15;;;1.15;;
9424;SDS011;17139;52.140;11.636;2022-07-04T10:51:54;1.00;;;1.00;;
9424;SDS011;17139;52.140;11.636;2022-07-04T10:54:27;1.00;;;1.00;;
9424;SDS011;17139;52.140;11.636;2022-07-04T10:56:57;1.40;;;1.20;;
9424;SDS011;17139;52.140;11.636;2022-07-04T10:59:32;1.35;;;1.20;;
9424;SDS011;17139;52.140;11.636;2022-07-04T11:04:54;1.30;;;1.20;;
9424;SDS011;17139;52.140;11.636;2022-07-04T11:10:29;0.85;;;0.85;;
9424;SDS011;17139;52.140;11.636;2022-07-04T11:13:02;1.00;;;1.00;;
9424;SDS011;17139;52.140;11.636;2022-07-04T11:18:29;0.90;;;0.90;;
9424;SDS011;17139;52.140;11.636;2022-07-04T11:21:05;2.00;;;1.10;;
9424;SDS011;17139;52.140;11.636;2022-07-04T11:23:49;5.57;;;1.10;;
9424;SDS011;17139;52.140;11.636;2022-07-04T11:26:18;1.67;;;0.98;;
9424;SDS011;17139;52.140;11.636;2022-07-04T11:28:50;0.80;;;0.80;;
9424;SDS011;17139;52.140;11.636;2022-07-04T11:31:17;1.75;;;1.00;;
9424;SDS011;17139;52.140;11.636;2022-07-04T11:33:46;1.08;;;1.08;;
9424;SDS011;17139;52.140;11.636;2022-07-04T11:36:13;2.88;;;1.00;;
9424;SDS011;17139;52.140;11.636;2022-07-04T11:38:47;0.90;;;0.90;;
9424;SDS011;17139;52.140;11.636;2022-07-04T11:41:16;1.98;;;0.93;;
9424;SDS011;17139;52.140;11.636;2022-07-04T11:44:05;1.70;;;1.20;;
9424;SDS011;17139;52.140;11.636;2022-07-04T11:46:51;1.67;;;0.98;;
9424;SDS011;17139;52.140;11.636;2022-07-04T11:49:28;0.80;;;0.80;;
9424;SDS011;17139;52.140;11.636;2022-07-04T11:51:56;3.17;;;0.97;;
9424;SDS011;17139;52.140;11.636;2022-07-04T11:54:23;0.98;;;0.98;;
9424;SDS011;17139;52.140;11.636;2022-07-04T11:56:50;1.02;;;1.00;;
9424;SDS011;17139;52.140;11.636;2022-07-04T11:59:17;1.13;;;0.90;;
9424;SDS011;17139;52.140;11.636;2022-07-04T12:01:44;2.72;;;1.02;;
9424;SDS011;17139;52.140;11.636;2022-07-04T12:04:16;1.13;;;1.10;;
9424;SDS011;17139;52.140;11.636;2022-07-04T12:06:46;1.17;;;1.17;;
9424;SDS011;17139;52.140;11.636;2022-07-04T12:09:14;0.70;;;0.70;;
9424;SDS011;17139;52.140;11.636;2022-07-04T12:11:55;0.93;;;0.88;;
9424;SDS011;17139;52.140;11.636;2022-07-04T12:14:24;1.00;;;1.00;;
9424;SDS011;17139;52.140;11.636;2022-07-04T12:17:08;0.90;;;0.90;;
9424;SDS011;17139;52.140;11.636;2022-07-04T12:19:49;2.78;;;0.80;;
9424;SDS011;17139;52.140;11.636;2022-07-04T12:22:32;0.80;;;0.80;;
9424;SDS011;17139;52.140;11.636;2022-07-04T12:25:01;1.15;;;0.98;;
9424;SDS011;17139;52.140;11.636;2022-07-04T12:27:30;0.82;;;0.82;;
9424;SDS011;17139;52.140;11.636;2022-07-04T12:29:57;2.55;;;0.90;;
9424;SDS011;17139;52.140;11.636;2022-07-04T12:38:05;0.90;;;0.90;;
9424;SDS011;17139;52.140;11.636;2022-07-04T12:40:33;0.90;;;0.90;;
9424;SDS011;17139;52.140;11.636;2022-07-04T12:43:01;0.90;;;0.90;;
9424;SDS011;17139;52.140;11.636;2022-07-04T12:48:14;1.30;;;0.90;;
9424;SDS011;17139;52.140;11.636;2022-07-04T12:50:42;1.35;;;1.25;;
9424;SDS011;17139;52.140;11.636;2022-07-04T12:53:10;0.80;;;0.80;;
9424;SDS011;17139;52.140;11.636;2022-07-04T12:55:38;1.50;;;0.90;;
9424;SDS011;17139;52.140;11.636;2022-07-04T12:58:08;0.90;;;0.90;;
9424;SDS011;17139;52.140;11.636;2022-07-04T13:00:35;1.00;;;0.90;;
9424;SDS011;17139;52.140;11.636;2022-07-04T13:03:02;2.00;;;1.13;;
9424;SDS011;17139;52.140;11.636;2022-07-04T13:05:30;1.02;;;1.02;;
9424;SDS011;17139;52.140;11.636;2022-07-04T13:07:57;0.80;;;0.80;;
9424;SDS011;17139;52.140;11.636;2022-07-04T13:10:25;0.88;;;0.88;;
9424;SDS011;17139;52.140;11.636;2022-07-04T13:12:52;0.80;;;0.80;;
9424;SDS011;17139;52.140;11.636;2022-07-04T13:15:19;1.20;;;1.20;;
9424;SDS011;17139;52.140;11.636;2022-07-04T13:17:46;1.02;;;1.02;;
9424;SDS011;17139;52.140;11.636;2022-07-04T13:20:13;1.55;;;1.17;;
9424;SDS011;17139;52.140;11.636;2022-07-04T13:22:40;1.17;;;1.05;;
9424;SDS011;17139;52.140;11.636;2022-07-04T13:25:07;1.33;;;1.02;;
9424;SDS011;17139;52.140;11.636;2022-07-04T13:27:35;1.00;;;1.00;;
9424;SDS011;17139;52.140;11.636;2022-07-04T13:30:02;1.10;;;1.10;;
9424;SDS011;17139;52.140;11.636;2022-07-04T13:32:30;0.65;;;0.65;;
9424;SDS011;17139;52.140;11.636;2022-07-04T13:34:58;1.80;;;0.90;;
9424;SDS011;17139;52.140;11.636;2022-07-04T13:37:25;0.70;;;0.70;;
9424;SDS011;17139;52.140;11.636;2022-07-04T13:39:51;0.70;;;0.70;;
9424;SDS011;17139;52.140;11.636;2022-07-04T13:42:21;2.38;;;0.80;;
9424;SDS011;17139;52.140;11.636;2022-07-04T13:45:08;0.77;;;0.77;;
9424;SDS011;17139;52.140;11.636;2022-07-04T13:47:36;1.73;;;0.80;;
9424;SDS011;17139;52.140;11.636;2022-07-04T13:50:04;0.95;;;0.95;;
9424;SDS011;17139;52.140;11.636;2022-07-04T13:52:31;1.33;;;0.80;;
9424;SDS011;17139;52.140;11.636;2022-07-04T13:54:58;1.45;;;0.80;;
9424;SDS011;17139;52.140;11.636;2022-07-04T13:57:25;0.70;;;0.70;;
9424;SDS011;17139;52.140;11.636;2022-07-04T13:59:53;0.85;;;0.77;;
9424;SDS011;17139;52.140;11.636;2022-07-04T14:02:21;0.80;;;0.80;;
9424;SDS011;17139;52.140;11.636;2022-07-04T14:04:48;0.80;;;0.80;;
9424;SDS011;17139;52.140;11.636;2022-07-04T14:07:15;1.65;;;1.05;;
9424;SDS011;17139;52.140;11.636;2022-07-04T14:09:43;0.65;;;0.65;;
9424;SDS011;17139;52.140;11.636;2022-07-04T14:12:10;0.80;;;0.77;;
9424;SDS011;17139;52.140;11.636;2022-07-04T14:14:37;0.80;;;0.80;;
9424;SDS011;17139;52.140;11.636;2022-07-04T14:17:03;0.82;;;0.82;;
9424;SDS011;17139;52.140;11.636;2022-07-04T14:19:32;2.75;;;0.77;;
9424;SDS011;17139;52.140;11.636;2022-07-04T14:21:59;0.75;;;0.75;;
9424;SDS011;17139;52.140;11.636;2022-07-04T14:24:26;2.95;;;0.70;;
9424;SDS011;17139;52.140;11.636;2022-07-04T14:26:53;0.98;;;0.98;;
9424;SDS011;17139;52.140;11.636;2022-07-04T14:29:20;1.20;;;0.75;;
9424;SDS011;17139;52.140;11.636;2022-07-04T14:31:47;1.15;;;0.63;;
9424;SDS011;17139;52.140;11.636;2022-07-04T14:34:16;0.57;;;0.57;;
9424;SDS011;17139;52.140;11.636;2022-07-04T14:36:45;2.03;;;0.70;;
9424;SDS011;17139;52.140;11.636;2022-07-04T14:39:12;3.10;;;0.73;;
9424;SDS011;17139;52.140;11.636;2022-07-04T14:41:39;0.93;;;0.60;;
9424;SDS011;17139;52.140;11.636;2022-07-04T14:44:06;1.25;;;0.60;;
9424;SDS011;17139;52.140;11.636;2022-07-04T14:46:33;1.67;;;0.70;;
9424;SDS011;17139;52.140;11.636;2022-07-04T14:49:00;0.65;;;0.65;;
9424;SDS011;17139;52.140;11.636;2022-07-04T14:51:27;0.82;;;0.75;;
9424;SDS011;17139;52.140;11.636;2022-07-04T14:53:55;0.60;;;0.60;;
9424;SDS011;17139;52.140;11.636;2022-07-04T14:56:22;0.70;;;0.70;;
9424;SDS011;17139;52.140;11.636;2022-07-04T14:58:49;1.70;;;0.60;;
9424;SDS011;17139;52.140;11.636;2022-07-04T15:01:16;1.92;;;0.68;;
9424;SDS011;17139;52.140;11.636;2022-07-04T15:03:44;0.80;;;0.80;;
9424;SDS011;17139;52.140;11.636;2022-07-04T15:06:11;0.70;;;0.70;;
9424;SDS011;17139;52.140;11.636;2022-07-04T15:08:38;0.70;;;0.70;;
9424;SDS011;17139;52.140;11.636;2022-07-04T15:11:07;0.70;;;0.70;;
9424;SDS011;17139;52.140;11.636;2022-07-04T15:13:34;0.70;;;0.70;;
9424;SDS011;17139;52.140;11.636;2022-07-04T15:16:01;0.60;;;0.60;;
9424;SDS011;17139;52.140;11.636;2022-07-04T15:18:28;0.70;;;0.70;;
9424;SDS011;17139;52.140;11.636;2022-07-04T15:20:55;0.70;;;0.70;;